createdAt,value
2022-10-18T00:00:48.027Z,102553.50
2022-10-18T00:03:14.506Z,102556.91
2022-10-18T00:05:40.949Z,102549.97
2022-10-18T00:08:07.428Z,102546.44
2022-10-18T00:10:33.968Z,102553.31
2022-10-18T00:13:00.490Z,102545.50
2022-10-18T00:15:27.162Z,102544.69
2022-10-18T00:17:53.604Z,102548.13
2022-10-18T00:20:20.072Z,102531.47
2022-10-18T00:22:46.584Z,102555.88
2022-10-18T00:25:15.183Z,102552.31
2022-10-18T00:27:41.668Z,102555.78
2022-10-18T00:30:08.767Z,102554.91
2022-10-18T00:32:42.211Z,102553.97
2022-10-18T00:35:09.515Z,102550.53
2022-10-18T00:37:36.367Z,102554.84
2022-10-18T00:40:03.053Z,102553.09
2022-10-18T00:42:34.301Z,102553.03
2022-10-18T00:45:16.689Z,102547.75
2022-10-18T00:47:48.601Z,102537.06
2022-10-18T00:50:15.395Z,102570.09
2022-10-18T00:52:46.789Z,102559.56
2022-10-18T00:55:13.555Z,102556.97
2022-10-18T00:57:43.022Z,102552.47
2022-10-18T01:00:10.882Z,102564.59
2022-10-18T01:02:38.623Z,102578.31
2022-10-18T01:05:06.013Z,102576.41
2022-10-18T01:07:44.997Z,102576.03
2022-10-18T01:10:22.176Z,102601.22
2022-10-18T01:13:28.670Z,102598.59
2022-10-18T01:16:03.704Z,102572.28
2022-10-18T01:18:52.981Z,102594.06
2022-10-18T01:21:31.619Z,102603.53
2022-10-18T01:24:35.727Z,102609.44
2022-10-18T01:27:27.358Z,102611.03
2022-10-18T01:30:22.288Z,102600.31
2022-10-18T01:32:52.706Z,102596.72
2022-10-18T01:35:27.037Z,102621.19
2022-10-18T01:37:56.040Z,102615.84
2022-10-18T01:40:24.376Z,102614.97
2022-10-18T01:42:51.032Z,102619.19
2022-10-18T01:45:18.974Z,102624.31
2022-10-18T01:47:47.433Z,102623.31
2022-10-18T01:50:14.078Z,102622.31
2022-10-18T01:52:50.279Z,102619.66
2022-10-18T01:55:18.362Z,102621.25
2022-10-18T01:58:22.568Z,102633.28
2022-10-18T02:01:00.921Z,102609.56
2022-10-18T02:03:29.342Z,102634.00
2022-10-18T02:06:09.405Z,102621.69
2022-10-18T02:08:58.587Z,102616.13
2022-10-18T02:11:26.955Z,102635.44
2022-10-18T02:13:56.453Z,102633.59
2022-10-18T02:16:26.067Z,102632.63
2022-10-18T02:19:15.814Z,102625.41
2022-10-18T02:21:44.241Z,102634.09
2022-10-18T02:24:14.001Z,102645.28
2022-10-18T02:26:40.663Z,102637.41
2022-10-18T02:29:08.434Z,102625.13
2022-10-18T02:32:04.950Z,102630.31
2022-10-18T02:34:43.130Z,102617.88
2022-10-18T02:37:11.273Z,102631.13
2022-10-18T02:39:42.467Z,102631.00
2022-10-18T02:42:10.856Z,102622.84
2022-10-18T02:44:38.248Z,102646.50
2022-10-18T02:47:06.470Z,102638.63
2022-10-18T02:49:32.995Z,102637.66
2022-10-18T02:51:59.571Z,102647.09
2022-10-18T02:54:26.004Z,102652.25
2022-10-18T02:56:52.600Z,102656.50
2022-10-18T02:59:19.045Z,102657.28
2022-10-18T03:01:45.562Z,102662.41
2022-10-18T03:04:12.083Z,102662.34
2022-10-18T03:06:38.621Z,102666.59
2022-10-18T03:09:06.020Z,102657.09
2022-10-18T03:11:32.636Z,102663.03
2022-10-18T03:13:59.116Z,102666.44
2022-10-18T03:16:25.639Z,102657.56
2022-10-18T03:18:52.119Z,102659.41
2022-10-18T03:21:18.590Z,102663.59
2022-10-18T03:23:45.010Z,102662.72
2022-10-18T03:26:11.558Z,102658.28
2022-10-18T03:28:38.050Z,102667.78
2022-10-18T03:31:04.725Z,102665.16
2022-10-18T03:33:32.154Z,102672.84
2022-10-18T03:35:58.638Z,102670.28
2022-10-18T03:38:25.131Z,102665.84
2022-10-18T03:40:51.710Z,102668.41
2022-10-18T03:43:18.152Z,102663.13
2022-10-18T03:45:45.142Z,102670.78
2022-10-18T03:48:11.712Z,102663.03
2022-10-18T03:50:38.494Z,102662.91
2022-10-18T03:53:05.087Z,102650.88
2022-10-18T03:55:31.813Z,102661.16
2022-10-18T03:57:58.345Z,102662.81
2022-10-18T04:00:24.934Z,102660.19
2022-10-18T04:02:54.920Z,102661.81
2022-10-18T04:05:22.669Z,102659.97
2022-10-18T04:07:49.193Z,102667.78
2022-10-18T04:10:15.985Z,102654.69
2022-10-18T04:12:42.424Z,102660.84
2022-10-18T04:15:09.597Z,102661.72
2022-10-18T04:17:36.082Z,102659.06
2022-10-18T04:20:02.560Z,102666.06
2022-10-18T04:22:28.988Z,102667.88
2022-10-18T04:24:55.448Z,102679.97
2022-10-18T04:27:22.130Z,102668.75
2022-10-18T04:29:48.634Z,102674.75
2022-10-18T04:32:15.155Z,102678.13
2022-10-18T04:34:44.647Z,102679.75
2022-10-18T04:37:11.205Z,102680.56
2022-10-18T04:39:37.701Z,102675.38
2022-10-18T04:42:04.151Z,102678.78
2022-10-18T04:44:30.666Z,102689.00
2022-10-18T04:46:57.087Z,102688.91
2022-10-18T04:49:23.567Z,102687.91
2022-10-18T04:51:50.021Z,102673.25
2022-10-18T04:54:16.551Z,102670.50
2022-10-18T04:56:42.984Z,102672.09
2022-10-18T04:59:09.483Z,102672.03
2022-10-18T05:01:35.929Z,102672.84
2022-10-18T05:04:02.430Z,102668.41
2022-10-18T05:06:28.895Z,102667.47
2022-10-18T05:08:55.373Z,102666.50
2022-10-18T05:11:21.940Z,102675.13
2022-10-18T05:13:50.188Z,102669.06
2022-10-18T05:16:17.780Z,102668.91
2022-10-18T05:18:44.333Z,102670.53
2022-10-18T05:21:10.840Z,102668.06
2022-10-18T05:23:37.281Z,102676.69
2022-10-18T05:26:07.331Z,102685.31
2022-10-18T05:28:39.241Z,102692.25
2022-10-18T05:31:08.901Z,102695.66
2022-10-18T05:33:35.960Z,102699.91
2022-10-18T05:36:02.818Z,102701.56
2022-10-18T05:38:29.292Z,102703.19
2022-10-18T05:40:55.787Z,102707.44
2022-10-18T05:43:22.228Z,102703.91
2022-10-18T05:45:51.734Z,102707.19
2022-10-18T05:48:18.710Z,102709.72
2022-10-18T05:50:45.468Z,102719.09
2022-10-18T05:53:12.831Z,102723.34
2022-10-18T05:56:01.997Z,102719.81
2022-10-18T05:58:28.746Z,102722.34
2022-10-18T06:00:58.964Z,102715.28
2022-10-18T06:03:25.464Z,102732.56
2022-10-18T06:05:51.906Z,102724.75
2022-10-18T06:08:18.397Z,102735.81
2022-10-18T06:10:44.835Z,102730.66
2022-10-18T06:13:11.290Z,102730.56
2022-10-18T06:15:37.709Z,102740.88
2022-10-18T06:18:04.201Z,102740.88
2022-10-18T06:20:30.640Z,102751.22
2022-10-18T06:22:57.103Z,102743.47
2022-10-18T06:25:23.544Z,102746.06
2022-10-18T06:27:50.016Z,102749.59
2022-10-18T06:30:16.518Z,102745.22
2022-10-18T06:32:43.010Z,102750.50
2022-10-18T06:35:09.639Z,102757.38
2022-10-18T06:37:36.377Z,102762.53
2022-10-18T06:40:03.055Z,102761.66
2022-10-18T06:42:29.710Z,102759.91
2022-10-18T06:44:56.217Z,102762.44
2022-10-18T06:47:22.721Z,102759.91
2022-10-18T06:49:49.400Z,102753.72
2022-10-18T06:52:18.668Z,102770.09
2022-10-18T06:54:45.502Z,102780.44
2022-10-18T06:57:12.048Z,102784.72
2022-10-18T06:59:38.540Z,102782.06
2022-10-18T07:02:05.109Z,102776.09
2022-10-18T07:04:31.607Z,102785.53
2022-10-18T07:06:58.103Z,102784.59
2022-10-18T07:09:24.588Z,102781.81
2022-10-18T07:11:51.003Z,102796.81
2022-10-18T07:14:17.427Z,102792.53
2022-10-18T07:16:43.877Z,102800.34
2022-10-18T07:19:10.394Z,102804.75
2022-10-18T07:21:36.851Z,102808.28
2022-10-18T07:24:03.665Z,102798.03
2022-10-18T07:26:34.106Z,102795.44
2022-10-18T07:29:10.199Z,102803.41
2022-10-18T07:31:37.407Z,102816.63
2022-10-18T07:34:05.481Z,102808.88
2022-10-18T07:36:32.043Z,102826.38
2022-10-18T07:38:58.686Z,102822.28
2022-10-18T07:41:25.480Z,102818.97
2022-10-18T07:43:53.079Z,102831.22
2022-10-18T07:46:22.007Z,102826.22
2022-10-18T07:48:48.656Z,102835.13
2022-10-18T07:51:15.278Z,102836.19
2022-10-18T07:53:41.745Z,102848.63
2022-10-18T07:56:10.801Z,102848.84
2022-10-18T07:58:37.450Z,102860.38
2022-10-18T08:01:06.207Z,102858.03
2022-10-18T08:03:33.308Z,102864.34
2022-10-18T08:05:59.921Z,102877.63
2022-10-18T08:08:27.080Z,102885.63
2022-10-18T08:10:53.734Z,102884.25
2022-10-18T08:13:20.641Z,102882.84
2022-10-18T08:15:47.817Z,102894.44
2022-10-18T08:18:14.480Z,102893.88
2022-10-18T08:20:45.220Z,102863.66
2022-10-18T08:23:12.120Z,102885.09
2022-10-18T08:25:38.625Z,102893.22
2022-10-18T08:28:07.075Z,102876.81
2022-10-18T08:30:35.274Z,102908.59
2022-10-18T08:33:02.756Z,102900.34
2022-10-18T08:35:29.256Z,102906.94
2022-10-18T08:37:55.698Z,102911.81
2022-10-18T08:40:22.379Z,102917.66
2022-10-18T08:43:21.445Z,102920.38
2022-10-18T08:45:49.726Z,102891.97
2022-10-18T08:48:39.737Z,102918.66
2022-10-18T08:51:18.239Z,102894.31
2022-10-18T08:53:58.245Z,102901.41
2022-10-18T08:56:25.712Z,102926.13
2022-10-18T08:58:52.171Z,102919.25
2022-10-18T09:01:36.413Z,102921.84
2022-10-18T09:04:33.456Z,102924.47
2022-10-18T09:07:39.896Z,102921.66
2022-10-18T09:10:50.394Z,102887.25
2022-10-18T09:13:32.210Z,102921.91
2022-10-18T09:16:00.750Z,102923.91
2022-10-18T09:18:44.298Z,102934.50
2022-10-18T09:21:20.905Z,102938.06
2022-10-18T09:23:49.963Z,102948.59
2022-10-18T09:26:24.245Z,102939.88
2022-10-18T09:29:05.788Z,102938.22
2022-10-18T09:31:49.332Z,102954.06
2022-10-18T09:34:34.669Z,102948.00
2022-10-18T09:37:02.026Z,102950.72
2022-10-18T09:39:32.696Z,102950.75
2022-10-18T09:42:04.895Z,102941.09
2022-10-18T09:44:53.432Z,102949.72
2022-10-18T09:47:25.291Z,102950.50
2022-10-18T09:50:03.652Z,102950.31
2022-10-18T09:52:39.898Z,102945.66
2022-10-18T09:55:18.370Z,102956.75
2022-10-18T09:57:53.414Z,102958.06
2022-10-18T10:00:28.708Z,102952.44
2022-10-18T10:02:55.330Z,102940.75
2022-10-18T10:05:21.797Z,102943.13
2022-10-18T10:07:49.407Z,102955.03
2022-10-18T10:10:30.319Z,102934.66
2022-10-18T10:13:15.177Z,102952.19
2022-10-18T10:15:51.789Z,102942.72
2022-10-18T10:18:24.575Z,102932.56
2022-10-18T10:20:57.069Z,102948.47
2022-10-18T10:23:23.477Z,102952.16
2022-10-18T10:25:57.118Z,102940.09
2022-10-18T10:28:28.577Z,102955.16
2022-10-18T10:31:28.216Z,102951.00
2022-10-18T10:34:05.101Z,102939.88
2022-10-18T10:36:33.643Z,102952.28
2022-10-18T10:39:03.044Z,102948.97
2022-10-18T10:41:29.996Z,102950.06
2022-10-18T10:43:57.129Z,102955.41
2022-10-18T10:46:23.811Z,102955.56
2022-10-18T10:49:09.567Z,102932.06
2022-10-18T10:51:40.793Z,102947.03
2022-10-18T10:54:18.987Z,102927.84
2022-10-18T10:56:54.726Z,102928.81
2022-10-18T10:59:24.727Z,102951.59
2022-10-18T11:02:14.083Z,102955.97
2022-10-18T11:04:42.186Z,102960.34
2022-10-18T11:07:26.984Z,102955.13
2022-10-18T11:10:25.951Z,102932.38
2022-10-18T11:13:22.503Z,102945.50
2022-10-18T11:16:12.077Z,102939.38
2022-10-18T11:18:38.577Z,102944.63
2022-10-18T11:21:16.532Z,102919.25
2022-10-18T11:23:43.920Z,102927.97
2022-10-18T11:26:13.394Z,102933.22
2022-10-18T11:29:10.939Z,102930.56
2022-10-18T11:31:52.617Z,102927.94
2022-10-18T11:34:45.064Z,102917.41
2022-10-18T11:37:39.660Z,102914.78
2022-10-18T11:40:27.853Z,102916.53
2022-10-18T11:43:38.998Z,102913.88
2022-10-18T11:46:22.608Z,102913.88
2022-10-18T11:49:10.780Z,102918.19
2022-10-18T11:52:03.642Z,102900.69
2022-10-18T11:54:57.470Z,102912.06
2022-10-18T11:57:45.392Z,102908.56
2022-10-18T12:00:21.131Z,102908.56
2022-10-18T12:03:03.168Z,102908.56
2022-10-18T12:05:31.715Z,102904.19
2022-10-18T12:08:07.017Z,102899.81
2022-10-18T12:10:45.691Z,102898.06
2022-10-18T12:13:46.580Z,102880.59
2022-10-18T12:16:14.146Z,102888.53
2022-10-18T12:19:26.688Z,102889.38
2022-10-18T12:22:02.479Z,102885.03
2022-10-18T12:24:31.655Z,102878.91
2022-10-18T12:27:01.272Z,102869.28
2022-10-18T12:29:52.516Z,102889.44
2022-10-18T12:32:26.945Z,102880.69
2022-10-18T12:35:00.369Z,102886.84
2022-10-18T12:37:45.476Z,102887.75
2022-10-18T12:40:21.564Z,102886.03
2022-10-18T12:42:50.800Z,102894.75
2022-10-18T12:45:23.977Z,102893.03
2022-10-18T12:47:51.197Z,102894.75
2022-10-18T12:50:31.348Z,102875.53
2022-10-18T12:53:22.424Z,102896.50
2022-10-18T12:55:51.746Z,102885.09
2022-10-18T12:58:23.665Z,102880.75
2022-10-18T13:00:50.077Z,102871.09
2022-10-18T13:03:16.480Z,102861.47
2022-10-18T13:05:53.003Z,102874.59
2022-10-18T13:08:29.371Z,102864.97
2022-10-18T13:11:01.589Z,102868.47
2022-10-18T13:13:39.354Z,102857.09
2022-10-18T13:16:26.809Z,102865.88
2022-10-18T13:19:01.307Z,102857.97
2022-10-18T13:21:46.147Z,102858.84
2022-10-18T13:24:31.088Z,102847.50
2022-10-18T13:27:31.368Z,102868.47
2022-10-18T13:30:20.560Z,102852.72
2022-10-18T13:32:52.754Z,102859.69
2022-10-18T13:35:40.897Z,102859.69
2022-10-18T13:38:34.844Z,102857.91
2022-10-18T13:43:53.582Z,102864.88
2022-10-18T13:46:20.738Z,102865.69
2022-10-18T13:48:55.000Z,102863.00
2022-10-18T13:51:51.877Z,102869.97
2022-10-18T13:54:37.073Z,102862.84
2022-10-18T13:57:09.578Z,102868.88
2022-10-18T13:59:54.021Z,102861.78
2022-10-18T14:02:59.411Z,102850.28
2022-10-18T14:05:41.705Z,102859.75
2022-10-18T14:08:56.465Z,102853.50
2022-10-18T14:11:32.040Z,102855.97
2022-10-18T14:14:22.079Z,102842.63
2022-10-18T14:16:48.510Z,102841.53
2022-10-18T14:19:39.115Z,102842.25
2022-10-18T14:22:20.910Z,102839.47
2022-10-18T14:24:51.621Z,102830.66
2022-10-18T14:27:21.195Z,102834.91
2022-10-18T14:29:49.577Z,102831.38
2022-10-18T14:32:26.759Z,102827.94
2022-10-18T14:34:55.767Z,102821.84
2022-10-18T14:37:32.948Z,102819.34
2022-10-18T14:39:59.847Z,102825.53
2022-10-18T14:42:27.772Z,102840.56
2022-10-18T14:44:56.426Z,102840.69
2022-10-18T14:47:28.610Z,102827.69
2022-10-18T14:49:55.238Z,102845.25
2022-10-18T14:52:35.477Z,102845.38
2022-10-18T14:55:02.839Z,102842.81
2022-10-18T14:57:36.181Z,102823.72
2022-10-18T15:00:08.033Z,102836.00
2022-10-18T15:02:38.705Z,102839.59
2022-10-18T15:05:06.709Z,102835.25
2022-10-18T15:07:33.981Z,102842.31
2022-10-18T15:10:03.003Z,102838.91
2022-10-18T15:12:37.009Z,102830.25
2022-10-18T15:15:20.653Z,102827.66
2022-10-18T15:17:49.240Z,102839.03
2022-10-18T15:20:20.953Z,102836.44
2022-10-18T15:22:47.690Z,102848.78
2022-10-18T15:25:32.003Z,102846.19
2022-10-18T15:27:59.591Z,102846.28
2022-10-18T15:30:37.937Z,102844.59
2022-10-18T15:33:07.139Z,102851.63
2022-10-18T15:35:35.733Z,102846.41
2022-10-18T15:38:13.371Z,102842.94
2022-10-18T15:40:41.224Z,102836.84
2022-10-18T15:43:22.695Z,102841.28
2022-10-18T15:45:51.680Z,102839.50
2022-10-18T15:48:23.238Z,102812.44
2022-10-18T15:50:58.454Z,102828.19
2022-10-18T15:53:30.939Z,102821.19
2022-10-18T15:56:06.297Z,102821.25
2022-10-18T15:58:48.078Z,102820.38
2022-10-18T16:01:32.365Z,102824.78
2022-10-18T16:04:00.823Z,102824.78
2022-10-18T16:06:27.318Z,102827.41
2022-10-18T16:08:53.967Z,102818.66
2022-10-18T16:11:25.428Z,102808.16
2022-10-18T16:13:55.260Z,102830.03
2022-10-18T16:16:27.010Z,102802.91
2022-10-18T16:18:53.774Z,102826.53
2022-10-18T16:21:27.697Z,102790.63
2022-10-18T16:23:54.458Z,102816.00
2022-10-18T16:26:21.950Z,102814.22
2022-10-18T16:28:49.591Z,102815.09
2022-10-18T16:31:19.836Z,102816.81
2022-10-18T16:33:47.043Z,102818.50
2022-10-18T16:36:21.320Z,102821.97
2022-10-18T16:38:49.470Z,102796.56
2022-10-18T16:41:16.247Z,102827.97
2022-10-18T16:43:44.618Z,102842.78
2022-10-18T16:46:28.610Z,102843.59
2022-10-18T16:48:55.501Z,102838.31
2022-10-18T16:51:22.367Z,102841.75
2022-10-18T16:53:49.232Z,102840.78
2022-10-18T16:56:18.555Z,102822.28
2022-10-18T16:58:46.426Z,102845.84
2022-10-18T17:01:14.825Z,102847.53
2022-10-18T17:03:41.394Z,102849.13
2022-10-18T17:06:17.788Z,102839.25
2022-10-18T17:08:45.179Z,102856.75
2022-10-18T17:11:13.329Z,102857.50
2022-10-18T17:13:40.326Z,102853.06
2022-10-18T17:16:18.904Z,102856.41
2022-10-18T17:18:45.402Z,102857.19
2022-10-18T17:21:11.844Z,102851.84
2022-10-18T17:23:38.326Z,102855.25
2022-10-18T17:26:15.034Z,102861.25
2022-10-18T17:28:56.742Z,102868.97
2022-10-18T17:31:23.561Z,102864.53
2022-10-18T17:33:50.072Z,102858.34
2022-10-18T17:36:16.698Z,102865.16
2022-10-18T17:38:43.132Z,102871.16
2022-10-18T17:41:10.944Z,102873.66
2022-10-18T17:46:12.562Z,102870.91
2022-10-18T17:48:38.989Z,102869.06
2022-10-18T17:51:13.464Z,102874.19
2022-10-18T17:53:39.989Z,102876.72
2022-10-18T17:56:06.941Z,102870.53
2022-10-18T17:58:33.538Z,102874.78
2022-10-18T18:01:14.220Z,102875.56
2022-10-18T18:03:41.147Z,102870.31
2022-10-18T18:06:21.117Z,102874.56
2022-10-18T18:08:48.876Z,102882.31
2022-10-18T18:11:16.964Z,102880.44
2022-10-18T18:13:43.501Z,102886.44
2022-10-18T18:16:21.518Z,102893.31
2022-10-18T18:18:49.915Z,102892.25
2022-10-18T18:21:17.048Z,102894.78
2022-10-18T18:23:43.636Z,102906.94
2022-10-18T18:26:10.326Z,102900.66
2022-10-18T18:28:37.474Z,102903.19
2022-10-18T18:31:08.333Z,102910.91
2022-10-18T18:33:35.840Z,102903.78
2022-10-18T18:36:03.896Z,102893.94
2022-10-18T18:38:31.885Z,102907.84
2022-10-18T18:41:07.407Z,102905.91
2022-10-18T18:43:34.864Z,102902.25
2022-10-18T18:46:01.773Z,102918.72
2022-10-18T18:48:28.663Z,102927.31
2022-10-18T18:50:55.379Z,102922.84
2022-10-18T18:53:24.054Z,102927.91
2022-10-18T18:55:52.381Z,102924.25
2022-10-18T18:58:18.919Z,102919.88
2022-10-18T19:00:45.674Z,102911.97
2022-10-18T19:03:12.184Z,102907.56
2022-10-18T19:05:38.716Z,102901.38
2022-10-18T19:08:05.351Z,102890.03
2022-10-18T19:10:31.959Z,102886.50
2022-10-18T19:12:58.485Z,102900.41
2022-10-18T19:15:25.011Z,102898.63
2022-10-18T19:17:51.486Z,102896.88
2022-10-18T19:20:18.130Z,102895.19
2022-10-18T19:22:45.178Z,102895.09
2022-10-18T19:25:11.754Z,102898.53
2022-10-18T19:27:38.262Z,102901.97
2022-10-18T19:30:07.751Z,102902.81
2022-10-18T19:32:34.845Z,102912.28
2022-10-18T19:35:01.384Z,102908.75
2022-10-18T19:37:27.815Z,102894.75
2022-10-18T19:39:54.289Z,102905.06
2022-10-18T19:42:24.196Z,102904.97
2022-10-18T19:44:53.000Z,102906.63
2022-10-18T19:47:19.565Z,102910.03
2022-10-18T19:49:46.334Z,102903.88
2022-10-18T19:52:12.817Z,102892.50
2022-10-18T19:54:39.593Z,102896.00
2022-10-18T19:57:06.047Z,102908.09
2022-10-18T19:59:32.537Z,102908.94
2022-10-18T20:01:59.024Z,102900.16
2022-10-18T20:04:25.533Z,102902.75
2022-10-18T20:06:52.038Z,102896.63
2022-10-18T20:09:20.622Z,102890.50
2022-10-18T20:11:47.385Z,102899.16
2022-10-18T20:14:13.848Z,102892.09
2022-10-18T20:16:40.312Z,102893.06
2022-10-18T20:19:07.608Z,102880.91
2022-10-18T20:21:35.329Z,102885.22
2022-10-18T20:24:03.094Z,102886.91
2022-10-18T20:26:29.664Z,102880.81
2022-10-18T20:28:57.913Z,102876.44
2022-10-18T20:31:30.015Z,102869.47
2022-10-18T20:34:02.654Z,102872.88
2022-10-18T20:36:31.845Z,102886.72
2022-10-18T20:38:59.296Z,102896.22
2022-10-18T20:41:27.698Z,102891.84
2022-10-18T20:43:56.681Z,102868.19
2022-10-18T20:46:24.295Z,102879.69
2022-10-18T20:48:52.545Z,102859.41
2022-10-18T20:51:19.725Z,102892.63
2022-10-18T20:53:46.295Z,102864.81
2022-10-18T20:56:15.698Z,102859.41
2022-10-18T20:58:44.195Z,102877.81
2022-10-18T21:01:16.766Z,102871.72
2022-10-18T21:03:46.403Z,102885.56
2022-10-18T21:06:14.125Z,102885.50
2022-10-18T21:08:41.392Z,102897.59
2022-10-18T21:11:09.220Z,102877.59
2022-10-18T21:13:35.886Z,102895.78
2022-10-18T21:16:04.178Z,102893.19
2022-10-18T21:18:32.720Z,102887.09
2022-10-18T21:23:39.980Z,102880.19
2022-10-18T21:26:06.962Z,102861.69
2022-10-18T21:28:33.489Z,102887.94
2022-10-18T21:31:10.238Z,102892.19
2022-10-18T21:33:36.695Z,102886.16
2022-10-18T21:36:03.750Z,102882.75
2022-10-18T21:38:30.214Z,102882.75
2022-10-18T21:40:56.754Z,102884.41
2022-10-18T21:43:23.204Z,102883.63
2022-10-18T21:45:49.721Z,102875.84
2022-10-18T21:48:16.212Z,102883.63
2022-10-18T21:50:42.741Z,102887.13
2022-10-18T21:53:09.194Z,102884.56
2022-10-18T21:55:35.969Z,102885.44
2022-10-18T21:58:02.432Z,102877.69
2022-10-18T22:00:28.909Z,102870.75
2022-10-18T22:03:08.310Z,102862.03
2022-10-18T22:05:34.839Z,102863.78
2022-10-18T22:08:01.595Z,102849.97
2022-10-18T22:10:28.276Z,102840.41
2022-10-18T22:12:54.933Z,102848.19
2022-10-18T22:15:21.561Z,102848.19
2022-10-18T22:17:48.073Z,102842.13
2022-10-18T22:20:14.666Z,102848.13
2022-10-18T22:22:41.132Z,102845.53
2022-10-18T22:25:08.065Z,102839.41
2022-10-18T22:27:34.822Z,102841.13
2022-10-18T22:30:01.640Z,102845.44
2022-10-18T22:32:28.096Z,102842.84
2022-10-18T22:34:54.577Z,102832.44
2022-10-18T22:37:21.038Z,102834.22
2022-10-18T22:39:47.503Z,102829.91
2022-10-18T22:42:13.957Z,102834.22
2022-10-18T22:44:40.433Z,102835.88
2022-10-18T22:47:06.874Z,102833.38
2022-10-18T22:49:33.329Z,102833.34
2022-10-18T22:51:59.791Z,102829.00
2022-10-18T22:54:26.256Z,102817.78
2022-10-18T22:56:52.670Z,102815.19
2022-10-18T22:59:19.301Z,102815.19
2022-10-18T23:01:45.743Z,102812.63
2022-10-18T23:04:12.167Z,102822.16
2022-10-18T23:06:39.501Z,102819.50
2022-10-18T23:09:08.654Z,102790.63
2022-10-18T23:11:35.907Z,102808.22
2022-10-18T23:14:03.460Z,102799.56
2022-10-18T23:16:30.202Z,102792.66
2022-10-18T23:18:57.983Z,102792.66
2022-10-18T23:21:26.356Z,102783.94
2022-10-18T23:23:53.883Z,102779.66
2022-10-18T23:26:23.437Z,102756.91
2022-10-18T23:28:51.680Z,102750.78
2022-10-18T23:31:21.429Z,102754.22
2022-10-18T23:33:49.457Z,102759.72
2022-10-18T23:36:16.580Z,102756.19
2022-10-18T23:38:43.321Z,102759.66
2022-10-18T23:41:12.693Z,102760.44
2022-10-18T23:43:39.293Z,102748.28
2022-10-18T23:46:06.112Z,102764.75
2022-10-18T23:48:32.745Z,102760.41
2022-10-18T23:50:59.447Z,102754.38
2022-10-18T23:53:26.251Z,102760.41
2022-10-18T23:56:03.197Z,102741.91
2022-10-18T23:58:31.927Z,102774.25
